NOAA Web Site Link Tides and Currents Home Page Transparent placeholder image

On Saturday, June 23rd, 2018 starting at 7:30 a.m to 8 p.m. EDT, there will be a system maintenance performed affecting the Tides and Currents web site (https://tidesandcurrents.noaa.gov). During this time, the Tides and Currents website will be running with limited capabilities. Click here for more information.

PORTS® Data Listing: 8539094 Burlington, Delaware River, NJ

CO-OPS RAW PORTS DATA

************************      PRELIMINARY DATA      ************************** 

     THIS RAW DATA HAS NOT BEEN SUBJECT TO THE NATIONAL OCEAN SERVICE'S        
     QUALITY CONTROL OR QUALITY ASSURANCE PROCEDURES AND DOES NOT MEET         
     THE CRITERIA AND STANDARDS OF OFFICIAL NATIONAL OCEAN SERVICE             
     DATA.  IT IS RELEASED FOR LIMITED PUBLIC USE AS PRELIMINARY DATA TO       
     BE USED ONLY WITH APPROPRIATE CAUTION.                                    

************************      PRELIMINARY DATA      ************************** 


       CD   -   Calendar date
       T    -   Time
       TZ   -   Timezone
       PW   -   Predicted water level (feet above MLLW)
       OW   -   Observed water level (feet above MLLW)
       WS   -   Wind speed (knots)
       WD   -   Wind direction (degrees true)
       WG   -   Wind gust (knots)
       AT   -   Air temperature (degrees farenheit)
       WT   -   Water temperature (degrees farenheit)
       AP   -   Air pressure (millibars)
       SA   -   Salinty (PSU - Practical Salinity Units)
       SG   -   Specific gravity
       RH   -   Relative humidity
       AG   -   Air gap (feet)
       VI   -   Visibility (nautical miles)

       ** NOTE **
       A variable that has its data fields filled with "9"s, indicates that
       data was not collected for that sample period.
       **********


STATION NAME: Burlington, Delaware River (8539094)
****************************************************************************************************
    CD       T    TZ    PW     OW    WS   WD   WG    AT    WT    AP    SA    SG     RH    AG   VI
****************************************************************************************************
2018/06/22 03:00 EDT    2.85   3.24    2  144    4  70.0  77.2 1010.9 -9.9 -9.999 -99.9 -99.99 -9.99
2018/06/22 03:06 EDT    2.72   3.12    2  136    2  70.2  77.2 1011.0 -9.9 -9.999 -99.9 -99.99 -9.99
2018/06/22 03:12 EDT    2.58   3.00    2  151    3  70.0  77.2 1011.0 -9.9 -9.999 -99.9 -99.99 -9.99
2018/06/22 03:18 EDT    2.44   2.88    2  117    3  70.0  77.2 1011.0 -9.9 -9.999 -99.9 -99.99 -9.99
2018/06/22 03:24 EDT    2.30   2.75    1   99    3  70.0  77.4 1010.9 -9.9 -9.999 -99.9 -99.99 -9.99
2018/06/22 03:30 EDT    2.17   2.65    3  125    4  70.2  77.4 1010.9 -9.9 -9.999 -99.9 -99.99 -9.99
2018/06/22 03:36 EDT    2.03   2.54    4  123    7  69.8  77.4 1011.0 -9.9 -9.999 -99.9 -99.99 -9.99
2018/06/22 03:42 EDT    1.89   2.43    4  119    5  69.4  77.4 1011.1 -9.9 -9.999 -99.9 -99.99 -9.99
2018/06/22 03:48 EDT    1.75   2.32    4  113    5  69.3  77.4 1011.1 -9.9 -9.999 -99.9 -99.99 -9.99
2018/06/22 03:54 EDT    1.61   2.21    5  120    7  69.1  77.4 1011.2 -9.9 -9.999 -99.9 -99.99 -9.99
2018/06/22 04:00 EDT    1.47   2.10    5  132    7  68.7  77.4 1011.2 -9.9 -9.999 -99.9 -99.99 -9.99
2018/06/22 04:06 EDT    1.34   1.99    5  124    7  68.7  77.5 1011.2 -9.9 -9.999 -99.9 -99.99 -9.99
2018/06/22 04:12 EDT    1.21   1.88    5  103    7  68.9  77.5 1011.2 -9.9 -9.999 -99.9 -99.99 -9.99
2018/06/22 04:18 EDT    1.08   1.78    4  106    7  68.9  77.5 1011.3 -9.9 -9.999 -99.9 -99.99 -9.99
2018/06/22 04:24 EDT    0.97   1.68    4  108    5  69.1  77.5 1011.3 -9.9 -9.999 -99.9 -99.99 -9.99
2018/06/22 04:30 EDT    0.86   1.58    3  130    5  69.1  77.5 1011.4 -9.9 -9.999 -99.9 -99.99 -9.99
2018/06/22 04:36 EDT    0.75   1.48    4  130    6  69.1  77.5 1011.5 -9.9 -9.999 -99.9 -99.99 -9.99
2018/06/22 04:42 EDT    0.66   1.38    3  112    5  69.1  77.5 1011.5 -9.9 -9.999 -99.9 -99.99 -9.99
2018/06/22 04:48 EDT    0.58   1.29    4  108    5  69.3  77.5 1011.7 -9.9 -9.999 -99.9 -99.99 -9.99
2018/06/22 04:54 EDT    0.51   1.20    4   98    5  69.1  77.5 1011.8 -9.9 -9.999 -99.9 -99.99 -9.99
2018/06/22 05:00 EDT    0.46   1.11    4   94    6  68.9  77.5 1011.9 -9.9 -9.999 -99.9 -99.99 -9.99
2018/06/22 05:06 EDT    0.42   1.03    5   98    6  68.9  77.5 1011.9 -9.9 -9.999 -99.9 -99.99 -9.99
2018/06/22 05:12 EDT    0.39   0.96    5   97    6  68.7  77.5 1012.1 -9.9 -9.999 -99.9 -99.99 -9.99
2018/06/22 05:18 EDT    0.38   0.88    5  101    6  68.9  77.7 1012.1 -9.9 -9.999 -99.9 -99.99 -9.99
2018/06/22 05:24 EDT    0.39   0.82    4  109    7  68.5  77.5 1012.2 -9.9 -9.999 -99.9 -99.99 -9.99
2018/06/22 05:30 EDT    0.41   0.77    4  120    7  68.5  77.7 1012.3 -9.9 -9.999 -99.9 -99.99 -9.99
2018/06/22 05:36 EDT    0.44   0.74    5  115    6  68.2  77.7 1012.4 -9.9 -9.999 -99.9 -99.99 -9.99
2018/06/22 05:42 EDT    0.49   0.72    5  115    7  67.8  77.7 1012.4 -9.9 -9.999 -99.9 -99.99 -9.99
2018/06/22 05:48 EDT    0.56   0.73    5  122    7  67.8  77.7 1012.6 -9.9 -9.999 -99.9 -99.99 -9.99
2018/06/22 05:54 EDT    0.64   0.78    7  108    9  67.6  77.7 1012.7 -9.9 -9.999 -99.9 -99.99 -9.99
2018/06/22 06:00 EDT    0.74   0.89    6  103    8  67.5  77.7 1012.8 -9.9 -9.999 -99.9 -99.99 -9.99
2018/06/22 06:06 EDT    0.85   1.07    6   99    9  67.1  77.7 1013.0 -9.9 -9.999 -99.9 -99.99 -9.99
2018/06/22 06:12 EDT    0.97   1.30    7   96    9  67.3  77.7 1013.1 -9.9 -9.999 -99.9 -99.99 -9.99
2018/06/22 06:18 EDT    1.10   1.54    6  108    9  67.3  77.7 1013.2 -9.9 -9.999 -99.9 -99.99 -9.99
2018/06/22 06:24 EDT    1.24   1.78    6   91    8  67.1  77.9 1013.4 -9.9 -9.999 -99.9 -99.99 -9.99
2018/06/22 06:30 EDT    1.39   2.00    6   92    8  67.5  77.9 1013.4 -9.9 -9.999 -99.9 -99.99 -9.99
2018/06/22 06:36 EDT    1.55   2.19    8   74    9  67.8  77.9 1013.4 -9.9 -9.999 -99.9 -99.99 -9.99
2018/06/22 06:42 EDT    1.72   2.38    8   79   11  67.3  77.9 1013.4 -9.9 -9.999 -99.9 -99.99 -9.99
2018/06/22 06:48 EDT    1.89   2.57    7   85   10  67.5  77.9 1013.5 -9.9 -9.999 -99.9 -99.99 -9.99
2018/06/22 06:54 EDT    2.07   2.73    7   97   10  67.5  77.9 1013.4 -9.9 -9.999 -99.9 -99.99 -9.99
2018/06/22 07:00 EDT    2.26   2.90    8   84   12  67.3  77.9 1013.5 -9.9 -9.999 -99.9 -99.99 -9.99
2018/06/22 07:06 EDT    2.45   3.05    6   82   10  67.5  77.7 1013.6 -9.9 -9.999 -99.9 -99.99 -9.99
2018/06/22 07:12 EDT    2.64   3.22    8   92   12  67.5  77.7 1013.7 -9.9 -9.999 -99.9 -99.99 -9.99
2018/06/22 07:18 EDT    2.83   3.37    8   92   10  67.3  77.7 1013.8 -9.9 -9.999 -99.9 -99.99 -9.99
2018/06/22 07:24 EDT    3.03   3.53    7   80   11  67.3  77.5 1013.9 -9.9 -9.999 -99.9 -99.99 -9.99
2018/06/22 07:30 EDT    3.22   3.70   10   84   12  67.1  77.5 1013.9 -9.9 -9.999 -99.9 -99.99 -9.99
2018/06/22 07:36 EDT    3.42   3.87    9   80   12  67.3  77.5 1013.8 -9.9 -9.999 -99.9 -99.99 -9.99
2018/06/22 07:42 EDT    3.62   4.06    8   88   11  67.6  77.5 1013.9 -9.9 -9.999 -99.9 -99.99 -9.99
2018/06/22 07:48 EDT    3.82   4.25    9   77   13  67.5  77.5 1014.0 -9.9 -9.999 -99.9 -99.99 -9.99
2018/06/22 07:54 EDT    4.02   4.46    8   80   12  67.3  77.4 1014.1 -9.9 -9.999 -99.9 -99.99 -9.99
2018/06/22 08:00 EDT    4.22   4.69    8   92   11  67.3  77.4 1014.1 -9.9 -9.999 -99.9 -99.99 -9.99
2018/06/22 08:06 EDT    4.42   4.93    9   91   13  67.5  77.4 1014.2 -9.9 -9.999 -99.9 -99.99 -9.99
2018/06/22 08:12 EDT    4.62   5.17    8   90   11  67.8  77.4 1014.3 -9.9 -9.999 -99.9 -99.99 -9.99
2018/06/22 08:18 EDT    4.82   5.41    8   91   11  67.6  77.2 1014.3 -9.9 -9.999 -99.9 -99.99 -9.99
2018/06/22 08:24 EDT    5.02   5.63    8  100   12  67.8  77.2 1014.3 -9.9 -9.999 -99.9 -99.99 -9.99
2018/06/22 08:30 EDT    5.21   5.82    8   92   11  68.0  77.2 1014.3 -9.9 -9.999 -99.9 -99.99 -9.99
2018/06/22 08:36 EDT    5.41   6.00    7   91   11  68.0  77.2 1014.4 -9.9 -9.999 -99.9 -99.99 -9.99
2018/06/22 08:42 EDT    5.60   6.16   10   85   13  68.2  77.2 1014.4 -9.9 -9.999 -99.9 -99.99 -9.99
2018/06/22 08:48 EDT    5.79   6.32    9   86   12  68.2  77.2 1014.4 -9.9 -9.999 -99.9 -99.99 -9.99
2018/06/22 08:54 EDT    5.97   6.46    9   86   13  68.2  77.0 1014.4 -9.9 -9.999 -99.9 -99.99 -9.99
2018/06/22 09:00 EDT    6.15   6.60   11   91   13  68.4  77.0 1014.4 -9.9 -9.999 -99.9 -99.99 -9.99
2018/06/22 09:06 EDT    6.33   6.74   10   76   14  68.5  77.0 1014.4 -9.9 -9.999 -99.9 -99.99 -9.99
2018/06/22 09:12 EDT    6.50   6.88   11  100   14  68.5  77.0 1014.4 -9.9 -9.999 -99.9 -99.99 -9.99
2018/06/22 09:18 EDT    6.66   7.01   11  103   13  68.5  77.0 1014.5 -9.9 -9.999 -99.9 -99.99 -9.99
2018/06/22 09:24 EDT    6.81   7.13   10   79   13  68.9  77.0 1014.6 -9.9 -9.999 -99.9 -99.99 -9.99
2018/06/22 09:30 EDT    6.96   7.25    9  101   12  68.9  77.0 1014.7 -9.9 -9.999 -99.9 -99.99 -9.99
2018/06/22 09:36 EDT    7.09   7.36    9   94   12  68.7  77.0 1014.8 -9.9 -9.999 -99.9 -99.99 -9.99
2018/06/22 09:42 EDT    7.22   7.46    9   97   14  68.9  77.0 1014.8 -9.9 -9.999 -99.9 -99.99 -9.99
2018/06/22 09:48 EDT    7.33   7.55   10  101   13  69.1  77.0 1014.7 -9.9 -9.999 -99.9 -99.99 -9.99
2018/06/22 09:54 EDT    7.43   7.64   12  115   17  68.9  76.8 1014.7 -9.9 -9.999 -99.9 -99.99 -9.99
2018/06/22 10:00 EDT    7.52   7.73   11   95   14  68.5  76.8 1014.7 -9.9 -9.999 -99.9 -99.99 -9.99
2018/06/22 10:06 EDT    7.60   7.80   10   91   13  68.7  76.8 1014.7 -9.9 -9.999 -99.9 -99.99 -9.99
2018/06/22 10:12 EDT    7.67   7.87   10   83   13  68.9  76.8 1014.8 -9.9 -9.999 -99.9 -99.99 -9.99
2018/06/22 10:18 EDT    7.72   7.93   11   96   17  68.9  76.8 1014.8 -9.9 -9.999 -99.9 -99.99 -9.99
2018/06/22 10:24 EDT    7.77   7.98   13   90   15  69.1  76.8 1014.7 -9.9 -9.999 -99.9 -99.99 -9.99
2018/06/22 10:30 EDT    7.80   8.02   12   92   16  68.9  76.8 1014.8 -9.9 -9.999 -99.9 -99.99 -9.99
2018/06/22 10:36 EDT    7.81   8.05   11  106   15  69.1  76.8 1014.9 -9.9 -9.999 -99.9 -99.99 -9.99
2018/06/22 10:42 EDT    7.82   8.06   11  113   16  69.1  76.8 1014.9 -9.9 -9.999 -99.9 -99.99 -9.99
2018/06/22 10:48 EDT    7.81   8.06   10  106   15  68.9  76.8 1015.1 -9.9 -9.999 -99.9 -99.99 -9.99
2018/06/22 10:54 EDT    7.79   8.06    8  111   12  68.9  76.8 1015.2 -9.9 -9.999 -99.9 -99.99 -9.99
2018/06/22 11:00 EDT    7.77   8.05   11  122   14  69.4  76.8 1015.2 -9.9 -9.999 -99.9 -99.99 -9.99
2018/06/22 11:06 EDT    7.73   8.03   10  116   14  68.9  76.8 1015.3 -9.9 -9.999 -99.9 -99.99 -9.99
2018/06/22 11:12 EDT    7.68   7.99   10  115   14  69.3  76.8 1015.3 -9.9 -9.999 -99.9 -99.99 -9.99
2018/06/22 11:18 EDT    7.63   7.94    9  110   14  69.4  76.8 1015.2 -9.9 -9.999 -99.9 -99.99 -9.99
2018/06/22 11:24 EDT    7.56   7.88   11   97   16  68.9  76.8 1015.3 -9.9 -9.999 -99.9 -99.99 -9.99
2018/06/22 11:30 EDT    7.49   7.82   11  109   15  68.7  76.8 1015.3 -9.9 -9.999 -99.9 -99.99 -9.99
2018/06/22 11:36 EDT    7.41   7.75   10  111   16  68.7  76.8 1015.4 -9.9 -9.999 -99.9 -99.99 -9.99
2018/06/22 11:42 EDT    7.33   7.66   10   99   13  68.9  76.8 1015.5 -9.9 -9.999 -99.9 -99.99 -9.99
2018/06/22 11:48 EDT    7.24   7.56   11   94   15  68.9  76.8 1015.5 -9.9 -9.999 -99.9 -99.99 -9.99
2018/06/22 11:54 EDT    7.15   7.47   10  108   15  69.3  76.8 1015.5 -9.9 -9.999 -99.9 -99.99 -9.99
2018/06/22 12:00 EDT    7.05   7.36   10  105   15  69.3  76.8 1015.5 -9.9 -9.999 -99.9 -99.99 -9.99
2018/06/22 12:06 EDT    6.94   7.25    7  107   13  69.6  76.8 1015.5 -9.9 -9.999 -99.9 -99.99 -9.99
2018/06/22 12:12 EDT    6.83   7.14   10  106   12  69.4  76.8 1015.5 -9.9 -9.999 -99.9 -99.99 -9.99
2018/06/22 12:18 EDT    6.72   7.02    8  124   12  69.4  76.8 1015.5 -9.9 -9.999 -99.9 -99.99 -9.99
2018/06/22 12:24 EDT    6.61   6.90    9  120   12  69.8  76.8 1015.5 -9.9 -9.999 -99.9 -99.99 -9.99
2018/06/22 12:30 EDT    6.49   6.78    8  115   12  70.0  76.8 1015.7 -9.9 -9.999 -99.9 -99.99 -9.99
2018/06/22 12:36 EDT    6.36   6.66    8  122   12  69.8  76.8 1015.6 -9.9 -9.999 -99.9 -99.99 -9.99
2018/06/22 12:42 EDT    6.24   6.52    7  110   12  69.8  76.8 1015.6 -9.9 -9.999 -99.9 -99.99 -9.99
2018/06/22 12:48 EDT    6.11   6.38   10   89   13  70.0  76.8 1015.5 -9.9 -9.999 -99.9 -99.99 -9.99
2018/06/22 12:54 EDT    5.98   6.24    9  106   13  70.0  76.8 1015.5 -9.9 -9.999 -99.9 -99.99 -9.99
2018/06/22 13:00 EDT    5.85   6.11   10  104   13  70.0  76.8 1015.4 -9.9 -9.999 -99.9 -99.99 -9.99
2018/06/22 13:06 EDT    5.71   5.97   10  118   13  69.8  76.8 1015.5 -9.9 -9.999 -99.9 -99.99 -9.99
2018/06/22 13:12 EDT    5.58   5.83   10   99   12  70.0  76.8 1015.4 -9.9 -9.999 -99.9 -99.99 -9.99
2018/06/22 13:18 EDT    5.44   5.70   10   93   13  70.0  76.8 1015.4 -9.9 -9.999 -99.9 -99.99 -9.99
2018/06/22 13:24 EDT    5.30   5.56    8  118   14  70.2  76.8 1015.4 -9.9 -9.999 -99.9 -99.99 -9.99
2018/06/22 13:30 EDT    5.16   5.43    8  109   12  70.3  76.8 1015.4 -9.9 -9.999 -99.9 -99.99 -9.99
2018/06/22 13:36 EDT    5.02   5.29   10   96   12  70.0  76.8 1015.4 -9.9 -9.999 -99.9 -99.99 -9.99
2018/06/22 13:42 EDT    4.88   5.16   11   88   15  69.8  76.8 1015.3 -9.9 -9.999 -99.9 -99.99 -9.99
2018/06/22 13:48 EDT    4.74   5.03    9  116   14  70.0  77.0 1015.3 -9.9 -9.999 -99.9 -99.99 -9.99
2018/06/22 13:54 EDT    4.60   4.90    8  110   12  69.8  77.0 1015.3 -9.9 -9.999 -99.9 -99.99 -9.99
2018/06/22 14:00 EDT    4.46   4.75   10  105   13  69.8  77.0 1015.3 -9.9 -9.999 -99.9 -99.99 -9.99
2018/06/22 14:06 EDT    4.32   4.62    8  113   13  69.8  77.0 1015.4 -9.9 -9.999 -99.9 -99.99 -9.99
2018/06/22 14:12 EDT    4.18   4.49    9  105   11  69.6  77.0 1015.4 -9.9 -9.999 -99.9 -99.99 -9.99
2018/06/22 14:18 EDT    4.04   4.35    9  100   13  69.6  77.0 1015.4 -9.9 -9.999 -99.9 -99.99 -9.99
2018/06/22 14:24 EDT    3.91   4.23   10  103   12  69.6  77.0 1015.2 -9.9 -9.999 -99.9 -99.99 -9.99
2018/06/22 14:30 EDT    3.77   4.10   11   93   13  69.4  77.0 1015.2 -9.9 -9.999 -99.9 -99.99 -9.99
2018/06/22 14:36 EDT    3.64   3.98    9  113   12  69.6  77.0 1015.2 -9.9 -9.999 -99.9 -99.99 -9.99
2018/06/22 14:42 EDT    3.51   3.85   10   90   12  69.3  77.2 1015.2 -9.9 -9.999 -99.9 -99.99 -9.99
2018/06/22 14:48 EDT    3.37   3.73    9   98   14  69.3  77.2 1015.1 -9.9 -9.999 -99.9 -99.99 -9.99
2018/06/22 14:54 EDT    3.24   3.61    9  102   14  69.3  77.2 1015.0 -9.9 -9.999 -99.9 -99.99 -9.99
2018/06/22 15:00 EDT    3.11   3.50   11  108   15  69.1  77.2 1015.0 -9.9 -9.999 -99.9 -99.99 -9.99
2018/06/22 15:06 EDT    2.98   3.38    8  106   13  69.3  77.2 1015.1 -9.9 -9.999 -99.9 -99.99 -9.99
2018/06/22 15:12 EDT    2.84   3.27    8  110   11  69.1  77.2 1015.0 -9.9 -9.999 -99.9 -99.99 -9.99
2018/06/22 15:18 EDT    2.71   3.15    9  105   13  69.1  77.2 1014.8 -9.9 -9.999 -99.9 -99.99 -9.99
2018/06/22 15:24 EDT    2.58   3.04    9  104   12  68.9  77.4 1014.9 -9.9 -9.999 -99.9 -99.99 -9.99
2018/06/22 15:30 EDT    2.44   2.94    6  116   10  69.1  77.4 1015.1 -9.9 -9.999 -99.9 -99.99 -9.99
2018/06/22 15:36 EDT    2.30   2.83    8  110   11  68.9  77.4 1015.1 -9.9 -9.999 -99.9 -99.99 -9.99
2018/06/22 15:42 EDT    2.16   2.71    8  112   12  68.9  77.4 1015.0 -9.9 -9.999 -99.9 -99.99 -9.99
2018/06/22 15:48 EDT    2.02   2.62   10  102   14  68.9  77.4 1014.7 -9.9 -9.999 -99.9 -99.99 -9.99
2018/06/22 15:54 EDT    1.88   2.49    8   99   11  69.3  77.4 1014.7 -9.9 -9.999 -99.9 -99.99 -9.99
2018/06/22 16:00 EDT    1.74   2.40   11   97   13  68.9  77.4 1014.6 -9.9 -9.999 -99.9 -99.99 -9.99
2018/06/22 16:06 EDT    1.60   2.30    8   99   13  69.3  77.5 1014.6 -9.9 -9.999 -99.9 -99.99 -9.99
2018/06/22 16:12 EDT    1.45   2.19   10  111   12  69.4  77.5 1014.7 -9.9 -9.999 -99.9 -99.99 -9.99
2018/06/22 16:18 EDT    1.31   2.10    9  102   12  69.3  77.5 1014.7 -9.9 -9.999 -99.9 -99.99 -9.99
2018/06/22 16:24 EDT    1.17   2.00   10  108   14  69.4  77.5 1014.6 -9.9 -9.999 -99.9 -99.99 -9.99
2018/06/22 16:30 EDT    1.03   1.91   10  101   14  69.1  77.5 1014.4 -9.9 -9.999 -99.9 -99.99 -9.99
2018/06/22 16:36 EDT    0.90   1.82   11  105   16  68.9  77.5 1014.6 -9.9 -9.999 -99.9 -99.99 -9.99
2018/06/22 16:42 EDT    0.77   1.73   11  104   14  68.7  77.5 1014.6 -9.9 -9.999 -99.9 -99.99 -9.99
2018/06/22 16:48 EDT    0.65   1.63    8   96   12  68.9  77.5 1014.7 -9.9 -9.999 -99.9 -99.99 -9.99
2018/06/22 16:54 EDT    0.53   1.55   11   93   14  68.7  77.5 1014.8 -9.9 -9.999 -99.9 -99.99 -9.99
2018/06/22 17:00 EDT    0.43   1.47    9  107   12  68.9  77.7 1014.6 -9.9 -9.999 -99.9 -99.99 -9.99
2018/06/22 17:06 EDT    0.33   1.39    9   90   11  69.1  77.7 1014.7 -9.9 -9.999 -99.9 -99.99 -9.99
2018/06/22 17:12 EDT    0.25   1.32    9   84   12  68.7  77.7 1014.7 -9.9 -9.999 -99.9 -99.99 -9.99
2018/06/22 17:18 EDT    0.17   1.25   10   90   12  68.9  77.7 1014.7 -9.9 -9.999 -99.9 -99.99 -9.99
2018/06/22 17:24 EDT    0.11   1.18   10   88   13  68.7  77.7 1014.6 -9.9 -9.999 -99.9 -99.99 -9.99
2018/06/22 17:30 EDT    0.07   1.12    9   89   13  68.7  77.7 1014.6 -9.9 -9.999 -99.9 -99.99 -9.99
2018/06/22 17:36 EDT    0.04   1.07    8   76   12  68.5  77.7 1014.6 -9.9 -9.999 -99.9 -99.99 -9.99
2018/06/22 17:42 EDT    0.02   1.03   10   82   13  68.5  77.7 1014.4 -9.9 -9.999 -99.9 -99.99 -9.99
2018/06/22 17:48 EDT    0.02   1.02   10   83   13  68.4  77.7 1014.4 -9.9 -9.999 -99.9 -99.99 -9.99
2018/06/22 17:54 EDT    0.04   1.02    8   96   11  68.4  77.7 1014.5 -9.9 -9.999 -99.9 -99.99 -9.99
2018/06/22 18:00 EDT    0.07   1.06   10   90   13  68.4  77.7 1014.4 -9.9 -9.999 -99.9 -99.99 -9.99
2018/06/22 18:06 EDT    0.12   1.15   10   89   13  68.0  77.7 1014.3 -9.9 -9.999 -99.9 -99.99 -9.99
2018/06/22 18:12 EDT    0.18   1.28    8   93   14  67.8  77.7 1014.3 -9.9 -9.999 -99.9 -99.99 -9.99
2018/06/22 18:18 EDT    0.26   1.47   10  104   11  67.8  77.9 1014.3 -9.9 -9.999 -99.9 -99.99 -9.99
2018/06/22 18:24 EDT    0.36   1.66    7  103   10  67.8  77.9 1014.3 -9.9 -9.999 -99.9 -99.99 -9.99
2018/06/22 18:30 EDT    0.47   1.86    8  100   12  67.8  77.9 1014.4 -9.9 -9.999 -99.9 -99.99 -9.99
2018/06/22 18:36 EDT    0.59   2.06    9   84   12  67.6  77.9 1014.6 -9.9 -9.999 -99.9 -99.99 -9.99
2018/06/22 18:42 EDT    0.72   2.24    8   95   12  67.6  77.9 1014.6 -9.9 -9.999 -99.9 -99.99 -9.99
2018/06/22 18:48 EDT    0.87   2.43    8   85   10  67.6  77.9 1014.5 -9.9 -9.999 -99.9 -99.99 -9.99
2018/06/22 18:54 EDT    1.02   2.61    9   85   11  67.8  77.9 1014.3 -9.9 -9.999 -99.9 -99.99 -9.99
2018/06/22 19:00 EDT    1.19   2.77    9   86   12  67.5  77.9 1014.4 -9.9 -9.999 -99.9 -99.99 -9.99
2018/06/22 19:06 EDT    1.36   2.94    9   88   11  67.3  77.9 1014.3 -9.9 -9.999 -99.9 -99.99 -9.99
2018/06/22 19:12 EDT    1.54   3.09    7   84   11  67.3  77.9 1014.3 -9.9 -9.999 -99.9 -99.99 -9.99
2018/06/22 19:18 EDT    1.73   3.25   10   83   12  67.6  77.7 1014.3 -9.9 -9.999 -99.9 -99.99 -9.99
2018/06/22 19:24 EDT    1.92   3.40    9   87   12  67.5  77.7 1014.3 -9.9 -9.999 -99.9 -99.99 -9.99
2018/06/22 19:30 EDT    2.12   3.55    8   87   10  67.5  77.7 1014.3 -9.9 -9.999 -99.9 -99.99 -9.99
2018/06/22 19:36 EDT    2.32   3.71    7   91   11  67.8  77.7 1014.4 -9.9 -9.999 -99.9 -99.99 -9.99
2018/06/22 19:42 EDT    2.53   3.89    7   99   11  67.5  77.7 1014.4 -9.9 -9.999 -99.9 -99.99 -9.99
2018/06/22 19:48 EDT    2.73   4.07    7   82    9  67.6  77.5 1014.5 -9.9 -9.999 -99.9 -99.99 -9.99
2018/06/22 19:54 EDT    2.95   4.26    6   82    9  67.6  77.5 1014.6 -9.9 -9.999 -99.9 -99.99 -9.99
2018/06/22 20:00 EDT    3.16   4.47    8   85   10  67.5  77.5 1014.5 -9.9 -9.999 -99.9 -99.99 -9.99
2018/06/22 20:06 EDT    3.37   4.68    6   85    9  67.3  77.5 1014.6 -9.9 -9.999 -99.9 -99.99 -9.99
2018/06/22 20:12 EDT    3.59   4.92    6  108    9  67.3  77.4 1014.5 -9.9 -9.999 -99.9 -99.99 -9.99
2018/06/22 20:18 EDT    3.81   5.15    7   98    8  67.1  77.4 1014.4 -9.9 -9.999 -99.9 -99.99 -9.99
2018/06/22 20:24 EDT    4.02   5.38    7  108    9  66.9  77.4 1014.5 -9.9 -9.999 -99.9 -99.99 -9.99
2018/06/22 20:30 EDT    4.24   5.60    7  107   10  66.6  77.4 1014.4 -9.9 -9.999 -99.9 -99.99 -9.99
2018/06/22 20:36 EDT    4.46   5.81    8   97   10  66.4  77.2 1014.3 -9.9 -9.999 -99.9 -99.99 -9.99
2018/06/22 20:42 EDT    4.68   6.00    8   94   10  66.2  77.2 1014.2 -9.9 -9.999 -99.9 -99.99 -9.99
2018/06/22 20:48 EDT    4.90   6.18 -999 -999 -999  66.4  77.2 1014.2 -9.9 -9.999 -99.9 -99.99 -9.99
2018/06/22 20:54 EDT    5.12   6.36 -999 -999 -999  66.0  77.2 1014.3 -9.9 -9.999 -99.9 -99.99 -9.99
2018/06/22 21:00 EDT    5.33 -99.99 -999 -999 -999 -99.9 -99.9 -999.9 -9.9 -9.999 -99.9 -99.99 -9.99
2018/06/22 21:06 EDT    5.55 -99.99 -999 -999 -999 -99.9 -99.9 -999.9 -9.9 -9.999 -99.9 -99.99 -9.99
2018/06/22 21:12 EDT    5.76 -99.99 -999 -999 -999 -99.9 -99.9 -999.9 -9.9 -9.999 -99.9 -99.99 -9.99
2018/06/22 21:18 EDT    5.97 -99.99 -999 -999 -999 -99.9 -99.9 -999.9 -9.9 -9.999 -99.9 -99.99 -9.99
2018/06/22 21:24 EDT    6.17 -99.99 -999 -999 -999 -99.9 -99.9 -999.9 -9.9 -9.999 -99.9 -99.99 -9.99
2018/06/22 21:30 EDT    6.37 -99.99 -999 -999 -999 -99.9 -99.9 -999.9 -9.9 -9.999 -99.9 -99.99 -9.99
2018/06/22 21:36 EDT    6.56 -99.99 -999 -999 -999 -99.9 -99.9 -999.9 -9.9 -9.999 -99.9 -99.99 -9.99
2018/06/22 21:42 EDT    6.75 -99.99 -999 -999 -999 -99.9 -99.9 -999.9 -9.9 -9.999 -99.9 -99.99 -9.99
2018/06/22 21:48 EDT    6.92 -99.99 -999 -999 -999 -99.9 -99.9 -999.9 -9.9 -9.999 -99.9 -99.99 -9.99
2018/06/22 21:54 EDT    7.09 -99.99 -999 -999 -999 -99.9 -99.9 -999.9 -9.9 -9.999 -99.9 -99.99 -9.99
2018/06/22 22:00 EDT    7.25 -99.99 -999 -999 -999 -99.9 -99.9 -999.9 -9.9 -9.999 -99.9 -99.99 -9.99
2018/06/22 22:06 EDT    7.40 -99.99 -999 -999 -999 -99.9 -99.9 -999.9 -9.9 -9.999 -99.9 -99.99 -9.99
2018/06/22 22:12 EDT    7.54 -99.99 -999 -999 -999 -99.9 -99.9 -999.9 -9.9 -9.999 -99.9 -99.99 -9.99
2018/06/22 22:18 EDT    7.67 -99.99 -999 -999 -999 -99.9 -99.9 -999.9 -9.9 -9.999 -99.9 -99.99 -9.99
2018/06/22 22:24 EDT    7.78 -99.99 -999 -999 -999 -99.9 -99.9 -999.9 -9.9 -9.999 -99.9 -99.99 -9.99
2018/06/22 22:30 EDT    7.88 -99.99 -999 -999 -999 -99.9 -99.9 -999.9 -9.9 -9.999 -99.9 -99.99 -9.99
2018/06/22 22:36 EDT    7.97 -99.99 -999 -999 -999 -99.9 -99.9 -999.9 -9.9 -9.999 -99.9 -99.99 -9.99
2018/06/22 22:42 EDT    8.05 -99.99 -999 -999 -999 -99.9 -99.9 -999.9 -9.9 -9.999 -99.9 -99.99 -9.99
2018/06/22 22:48 EDT    8.11 -99.99 -999 -999 -999 -99.9 -99.9 -999.9 -9.9 -9.999 -99.9 -99.99 -9.99
2018/06/22 22:54 EDT    8.16 -99.99 -999 -999 -999 -99.9 -99.9 -999.9 -9.9 -9.999 -99.9 -99.99 -9.99
2018/06/22 23:00 EDT    8.20 -99.99 -999 -999 -999 -99.9 -99.9 -999.9 -9.9 -9.999 -99.9 -99.99 -9.99
2018/06/22 23:06 EDT    8.22 -99.99 -999 -999 -999 -99.9 -99.9 -999.9 -9.9 -9.999 -99.9 -99.99 -9.99
2018/06/22 23:12 EDT    8.23 -99.99 -999 -999 -999 -99.9 -99.9 -999.9 -9.9 -9.999 -99.9 -99.99 -9.99
2018/06/22 23:18 EDT    8.23 -99.99 -999 -999 -999 -99.9 -99.9 -999.9 -9.9 -9.999 -99.9 -99.99 -9.99
2018/06/22 23:24 EDT    8.21 -99.99 -999 -999 -999 -99.9 -99.9 -999.9 -9.9 -9.999 -99.9 -99.99 -9.99
2018/06/22 23:30 EDT    8.19 -99.99 -999 -999 -999 -99.9 -99.9 -999.9 -9.9 -9.999 -99.9 -99.99 -9.99
2018/06/22 23:36 EDT    8.16 -99.99 -999 -999 -999 -99.9 -99.9 -999.9 -9.9 -9.999 -99.9 -99.99 -9.99
2018/06/22 23:42 EDT    8.11 -99.99 -999 -999 -999 -99.9 -99.9 -999.9 -9.9 -9.999 -99.9 -99.99 -9.99
2018/06/22 23:48 EDT    8.06 -99.99 -999 -999 -999 -99.9 -99.9 -999.9 -9.9 -9.999 -99.9 -99.99 -9.99
2018/06/22 23:54 EDT    7.99 -99.99 -999 -999 -999 -99.9 -99.9 -999.9 -9.9 -9.999 -99.9 -99.99 -9.99
2018/06/23 00:00 EDT    7.92 -99.99 -999 -999 -999 -99.9 -99.9 -999.9 -9.9 -9.999 -99.9 -99.99 -9.99
2018/06/23 00:06 EDT    7.85 -99.99 -999 -999 -999 -99.9 -99.9 -999.9 -9.9 -9.999 -99.9 -99.99 -9.99
2018/06/23 00:12 EDT    7.76 -99.99 -999 -999 -999 -99.9 -99.9 -999.9 -9.9 -9.999 -99.9 -99.99 -9.99
2018/06/23 00:18 EDT    7.67 -99.99 -999 -999 -999 -99.9 -99.9 -999.9 -9.9 -9.999 -99.9 -99.99 -9.99
2018/06/23 00:24 EDT    7.58 -99.99 -999 -999 -999 -99.9 -99.9 -999.9 -9.9 -9.999 -99.9 -99.99 -9.99
2018/06/23 00:30 EDT    7.48 -99.99 -999 -999 -999 -99.9 -99.9 -999.9 -9.9 -9.999 -99.9 -99.99 -9.99
2018/06/23 00:36 EDT    7.37 -99.99 -999 -999 -999 -99.9 -99.9 -999.9 -9.9 -9.999 -99.9 -99.99 -9.99
2018/06/23 00:42 EDT    7.26 -99.99 -999 -999 -999 -99.9 -99.9 -999.9 -9.9 -9.999 -99.9 -99.99 -9.99
2018/06/23 00:48 EDT    7.14 -99.99 -999 -999 -999 -99.9 -99.9 -999.9 -9.9 -9.999 -99.9 -99.99 -9.99
2018/06/23 00:54 EDT    7.02 -99.99 -999 -999 -999 -99.9 -99.9 -999.9 -9.9 -9.999 -99.9 -99.99 -9.99
2018/06/23 01:00 EDT    6.90 -99.99 -999 -999 -999 -99.9 -99.9 -999.9 -9.9 -9.999 -99.9 -99.99 -9.99
2018/06/23 01:06 EDT    6.77 -99.99 -999 -999 -999 -99.9 -99.9 -999.9 -9.9 -9.999 -99.9 -99.99 -9.99
2018/06/23 01:12 EDT    6.64 -99.99 -999 -999 -999 -99.9 -99.9 -999.9 -9.9 -9.999 -99.9 -99.99 -9.99
2018/06/23 01:18 EDT    6.51 -99.99 -999 -999 -999 -99.9 -99.9 -999.9 -9.9 -9.999 -99.9 -99.99 -9.99
2018/06/23 01:24 EDT    6.38 -99.99 -999 -999 -999 -99.9 -99.9 -999.9 -9.9 -9.999 -99.9 -99.99 -9.99
2018/06/23 01:30 EDT    6.24 -99.99 -999 -999 -999 -99.9 -99.9 -999.9 -9.9 -9.999 -99.9 -99.99 -9.99
2018/06/23 01:36 EDT    6.10 -99.99 -999 -999 -999 -99.9 -99.9 -999.9 -9.9 -9.999 -99.9 -99.99 -9.99
2018/06/23 01:42 EDT    5.96 -99.99 -999 -999 -999 -99.9 -99.9 -999.9 -9.9 -9.999 -99.9 -99.99 -9.99
2018/06/23 01:48 EDT    5.82 -99.99 -999 -999 -999 -99.9 -99.9 -999.9 -9.9 -9.999 -99.9 -99.99 -9.99
2018/06/23 01:54 EDT    5.68 -99.99 -999 -999 -999 -99.9 -99.9 -999.9 -9.9 -9.999 -99.9 -99.99 -9.99
2018/06/23 02:00 EDT    5.54 -99.99 -999 -999 -999 -99.9 -99.9 -999.9 -9.9 -9.999 -99.9 -99.99 -9.99
2018/06/23 02:06 EDT    5.39 -99.99 -999 -999 -999 -99.9 -99.9 -999.9 -9.9 -9.999 -99.9 -99.99 -9.99
2018/06/23 02:12 EDT    5.25 -99.99 -999 -999 -999 -99.9 -99.9 -999.9 -9.9 -9.999 -99.9 -99.99 -9.99
2018/06/23 02:18 EDT    5.11 -99.99 -999 -999 -999 -99.9 -99.9 -999.9 -9.9 -9.999 -99.9 -99.99 -9.99
2018/06/23 02:24 EDT    4.97 -99.99 -999 -999 -999 -99.9 -99.9 -999.9 -9.9 -9.999 -99.9 -99.99 -9.99
2018/06/23 02:30 EDT    4.83 -99.99 -999 -999 -999 -99.9 -99.9 -999.9 -9.9 -9.999 -99.9 -99.99 -9.99
2018/06/23 02:36 EDT    4.69 -99.99 -999 -999 -999 -99.9 -99.9 -999.9 -9.9 -9.999 -99.9 -99.99 -9.99
2018/06/23 02:42 EDT    4.55 -99.99 -999 -999 -999 -99.9 -99.9 -999.9 -9.9 -9.999 -99.9 -99.99 -9.99
2018/06/23 02:48 EDT    4.41 -99.99 -999 -999 -999 -99.9 -99.9 -999.9 -9.9 -9.999 -99.9 -99.99 -9.99
2018/06/23 02:54 EDT    4.27 -99.99 -999 -999 -999 -99.9 -99.9 -999.9 -9.9 -9.999 -99.9 -99.99 -9.99
2018/06/23 03:00 EDT    4.14 -99.99 -999 -999 -999 -99.9 -99.9 -999.9 -9.9 -9.999 -99.9 -99.99 -9.99

Revised: 10/15/2013
NOAA / National Ocean Service
Web site owner: Center for Operational Oceanographic Products and Services